createdAt,value
2022-12-08T00:01:34.310Z,100284.38
2022-12-08T00:04:04.571Z,100289.86
2022-12-08T00:06:59.715Z,100290.53
2022-12-08T00:09:42.333Z,100288.31
2022-12-08T00:12:16.541Z,100285.40
2022-12-08T00:14:47.284Z,100290.05
2022-12-08T00:17:15.891Z,100291.61
2022-12-08T00:19:44.475Z,100293.33
2022-12-08T00:22:13.034Z,100295.05
2022-12-08T00:24:44.102Z,100295.56
2022-12-08T00:27:14.153Z,100297.61
2022-12-08T00:29:44.460Z,100298.64
2022-12-08T00:32:12.856Z,100300.20
2022-12-08T00:34:40.898Z,100304.33
2022-12-08T00:37:08.849Z,100306.88
2022-12-08T00:39:36.787Z,100308.43
2022-12-08T00:42:13.911Z,100308.27
2022-12-08T00:44:43.826Z,100312.89
2022-12-08T00:47:12.897Z,100313.58
2022-12-08T00:49:41.691Z,100315.63
2022-12-08T00:52:09.591Z,100313.23
2022-12-08T00:54:37.537Z,100312.04
2022-12-08T00:57:06.186Z,100312.55
2022-12-08T00:59:34.228Z,100310.14
2022-12-08T01:02:02.137Z,100303.80
2022-12-08T01:04:30.415Z,100300.71
2022-12-08T01:06:58.288Z,100301.22
2022-12-08T01:09:26.357Z,100302.25
2022-12-08T01:11:54.661Z,100306.20
2022-12-08T01:14:22.565Z,100309.80
2022-12-08T01:16:50.968Z,100313.07
2022-12-08T01:19:19.342Z,100316.86
2022-12-08T01:21:47.346Z,100318.56
2022-12-08T01:24:21.708Z,100314.27
2022-12-08T01:26:50.968Z,100311.18
2022-12-08T01:29:18.879Z,100308.27
2022-12-08T01:31:47.038Z,100307.58
2022-12-08T01:34:15.077Z,100305.70
2022-12-08T01:36:44.465Z,100302.95
2022-12-08T01:39:17.957Z,100300.19
2022-12-08T01:41:47.768Z,100296.77
2022-12-08T01:44:15.728Z,100298.99
2022-12-08T01:46:48.830Z,100298.14
2022-12-08T01:49:43.105Z,100295.05
2022-12-08T01:52:13.654Z,100288.70
2022-12-08T01:54:53.092Z,100287.84
2022-12-08T01:57:24.025Z,100289.20
2022-12-08T01:59:58.855Z,100289.38
2022-12-08T02:02:33.605Z,100292.30
2022-12-08T02:05:03.506Z,100291.43
2022-12-08T02:07:31.781Z,100288.34
2022-12-08T02:10:01.000Z,100289.20
2022-12-08T02:12:29.755Z,100290.23
2022-12-08T02:15:04.852Z,100288.17
2022-12-08T02:17:49.865Z,100279.93
2022-12-08T02:20:27.614Z,100276.67
2022-12-08T02:23:01.514Z,100277.18
2022-12-08T02:25:47.892Z,100277.02
2022-12-08T02:28:35.981Z,100276.15
2022-12-08T02:31:51.364Z,100274.94
2022-12-08T02:34:30.550Z,100277.52
2022-12-08T02:37:20.580Z,100280.44
2022-12-08T02:40:09.598Z,100279.58
2022-12-08T02:42:44.599Z,100277.52
2022-12-08T02:45:23.070Z,100279.24
2022-12-08T02:47:52.223Z,100276.33
2022-12-08T02:50:20.487Z,100273.73
2022-12-08T02:52:49.101Z,100274.94
2022-12-08T02:55:20.090Z,100278.19
2022-12-08T02:58:26.095Z,100281.10
2022-12-08T03:01:17.991Z,100278.16
2022-12-08T03:04:13.900Z,100280.04
2022-12-08T03:07:00.280Z,100277.65
2022-12-08T03:09:44.781Z,100279.88
2022-12-08T03:12:26.425Z,100279.53
2022-12-08T03:14:58.768Z,100279.70
2022-12-08T03:17:30.011Z,100280.23
2022-12-08T03:20:04.191Z,100282.35
2022-12-08T03:22:33.129Z,100280.63
2022-12-08T03:25:01.505Z,100277.19
2022-12-08T03:27:31.533Z,100277.88
2022-12-08T03:30:01.130Z,100273.25
2022-12-08T03:32:48.159Z,100273.59
2022-12-08T03:35:24.291Z,100273.08
2022-12-08T03:37:52.804Z,100274.63
2022-12-08T03:40:21.016Z,100273.25
2022-12-08T03:42:48.903Z,100268.44
2022-12-08T03:45:16.932Z,100264.32
2022-12-08T03:47:45.180Z,100262.60
2022-12-08T03:50:13.255Z,100260.54
2022-12-08T03:52:41.211Z,100262.42
2022-12-08T03:55:09.496Z,100258.80
2022-12-08T03:57:37.910Z,100258.13
2022-12-08T04:00:07.624Z,100261.38
2022-12-08T04:02:35.762Z,100264.79
2022-12-08T04:05:03.907Z,100266.67
2022-12-08T04:07:31.891Z,100267.35
2022-12-08T04:10:00.179Z,100268.38
2022-12-08T04:12:28.059Z,100266.83
2022-12-08T04:14:55.972Z,100266.51
2022-12-08T04:17:23.903Z,100267.19
2022-12-08T04:19:52.573Z,100266.85
2022-12-08T04:22:20.509Z,100268.73
2022-12-08T04:24:48.890Z,100271.83
2022-12-08T04:27:16.768Z,100274.20
2022-12-08T04:29:44.611Z,100274.05
2022-12-08T04:32:12.874Z,100273.18
2022-12-08T04:34:40.887Z,100272.48
2022-12-08T04:37:08.880Z,100268.88
2022-12-08T04:39:37.082Z,100269.38
2022-12-08T04:42:05.181Z,100268.16
2022-12-08T04:44:33.053Z,100265.07
2022-12-08T04:47:01.008Z,100265.23
2022-12-08T04:49:29.145Z,100262.47
2022-12-08T04:51:57.119Z,100260.07
2022-12-08T04:54:25.224Z,100260.41
2022-12-08T04:56:53.207Z,100264.02
2022-12-08T04:59:21.219Z,100266.77
2022-12-08T05:01:49.375Z,100265.04
2022-12-08T05:04:17.546Z,100265.55
2022-12-08T05:06:45.961Z,100265.53
2022-12-08T05:09:13.988Z,100264.48
2022-12-08T05:11:46.962Z,100264.82
2022-12-08T05:14:18.999Z,100265.00
2022-12-08T05:16:47.968Z,100264.14
2022-12-08T05:19:16.696Z,100264.33
2022-12-08T05:21:45.362Z,100264.33
2022-12-08T05:24:13.299Z,100264.86
2022-12-08T05:26:41.399Z,100259.91
2022-12-08T05:29:09.849Z,100259.27
2022-12-08T05:31:37.945Z,100260.00
2022-12-08T05:34:05.926Z,100257.95
2022-12-08T05:36:33.976Z,100259.65
2022-12-08T05:39:01.920Z,100259.48
2022-12-08T05:41:29.845Z,100258.45
2022-12-08T05:43:57.767Z,100252.09
2022-12-08T05:46:25.946Z,100250.90
2022-12-08T05:48:54.067Z,100246.94
2022-12-08T05:51:24.273Z,100245.73
2022-12-08T05:53:53.028Z,100247.27
2022-12-08T05:56:22.231Z,100237.69
2022-12-08T05:58:50.392Z,100242.67
2022-12-08T06:01:22.683Z,100240.79
2022-12-08T06:03:51.401Z,100241.48
2022-12-08T06:06:20.167Z,100246.45
2022-12-08T06:08:48.147Z,100248.35
2022-12-08T06:11:25.552Z,100253.34
2022-12-08T06:13:54.694Z,100254.88
2022-12-08T06:16:23.886Z,100255.91
2022-12-08T06:18:52.387Z,100260.21
2022-12-08T06:21:21.050Z,100260.20
2022-12-08T06:23:51.286Z,100261.58
2022-12-08T06:26:20.610Z,100259.35
2022-12-08T06:28:49.485Z,100258.65
2022-12-08T06:31:27.966Z,100261.58
2022-12-08T06:33:56.035Z,100261.06
2022-12-08T06:36:26.234Z,100257.96
2022-12-08T06:38:54.275Z,100257.47
2022-12-08T06:41:22.359Z,100257.29
2022-12-08T06:43:50.645Z,100257.98
2022-12-08T06:46:20.358Z,100251.64
2022-12-08T06:48:50.477Z,100249.05
2022-12-08T06:51:22.060Z,100247.15
2022-12-08T06:53:50.041Z,100243.90
2022-12-08T06:56:20.114Z,100240.64
2022-12-08T06:58:52.505Z,100250.95
2022-12-08T07:01:21.599Z,100259.87
2022-12-08T07:03:49.750Z,100263.13
2022-12-08T07:06:23.899Z,100260.55
2022-12-08T07:08:52.195Z,100255.06
2022-12-08T07:11:22.190Z,100255.75
2022-12-08T07:13:51.597Z,100251.28
2022-12-08T07:16:19.799Z,100245.96
2022-12-08T07:18:47.836Z,100238.41
2022-12-08T07:21:17.604Z,100237.21
2022-12-08T07:23:46.867Z,100237.72
2022-12-08T07:26:15.408Z,100240.27
2022-12-08T07:28:43.773Z,100240.10
2022-12-08T07:31:21.165Z,100235.46
2022-12-08T07:33:50.358Z,100228.76
2022-12-08T07:36:18.772Z,100230.30
2022-12-08T07:38:47.270Z,100231.66
2022-12-08T07:41:23.244Z,100230.13
2022-12-08T07:43:53.574Z,100230.12
2022-12-08T07:46:24.171Z,100228.05
2022-12-08T07:48:52.614Z,100227.86
2022-12-08T07:51:21.208Z,100231.80
2022-12-08T07:53:54.249Z,100234.71
2022-12-08T07:56:23.733Z,100232.98
2022-12-08T07:58:51.997Z,100233.83
2022-12-08T08:01:26.548Z,100239.83
2022-12-08T08:03:57.190Z,100244.80
2022-12-08T08:06:25.246Z,100246.16
2022-12-08T08:08:53.431Z,100243.92
2022-12-08T08:11:21.918Z,100243.73
2022-12-08T08:13:51.041Z,100247.67
2022-12-08T08:16:19.873Z,100248.15
2022-12-08T08:18:50.035Z,100249.16
2022-12-08T08:24:08.916Z,100247.56
2022-12-08T08:26:37.419Z,100248.05
2022-12-08T08:29:05.529Z,100247.70
2022-12-08T08:31:33.552Z,100246.63
2022-12-08T08:34:06.141Z,100242.11
2022-12-08T08:36:34.628Z,100235.54
2022-12-08T08:39:03.402Z,100234.64
2022-12-08T08:41:31.462Z,100232.88
2022-12-08T08:43:59.500Z,100230.95
2022-12-08T08:46:27.763Z,100227.45
2022-12-08T08:48:56.390Z,100223.29
2022-12-08T08:51:24.601Z,100215.54
2022-12-08T08:53:52.456Z,100208.30
2022-12-08T08:56:20.422Z,100209.30
2022-12-08T08:58:49.655Z,100210.48
2022-12-08T09:01:21.083Z,100209.07
2022-12-08T09:03:49.731Z,100205.74
2022-12-08T09:06:18.307Z,100203.09
2022-12-08T09:08:46.936Z,100200.80
2022-12-08T09:11:15.442Z,100197.82
2022-12-08T09:13:43.452Z,100195.01
2022-12-08T09:16:11.972Z,100190.65
2022-12-08T09:18:40.056Z,100187.00
2022-12-08T09:21:13.272Z,100184.53
2022-12-08T09:23:41.216Z,100179.48
2022-12-08T09:26:10.170Z,100170.98
2022-12-08T09:28:38.425Z,100160.42
2022-12-08T09:31:06.449Z,100159.87
2022-12-08T09:33:34.579Z,100161.19
2022-12-08T09:36:04.401Z,100160.73
2022-12-08T09:38:32.840Z,100160.94
2022-12-08T09:41:04.408Z,100158.92
2022-12-08T09:43:51.864Z,100151.38
2022-12-08T09:46:20.941Z,100141.77
2022-12-08T09:48:56.977Z,100136.30
2022-12-08T09:51:27.166Z,100144.76
2022-12-08T09:54:03.289Z,100133.45
2022-12-08T09:56:35.780Z,100124.73
2022-12-08T09:59:30.741Z,100122.94
2022-12-08T10:02:00.496Z,100120.98
2022-12-08T10:04:35.183Z,100117.52
2022-12-08T10:07:25.117Z,100113.18
2022-12-08T10:10:06.099Z,100110.92
2022-12-08T10:12:38.154Z,100104.56
2022-12-08T10:15:48.771Z,100098.54
2022-12-08T10:18:25.025Z,100096.43
2022-12-08T10:20:54.545Z,100100.72
2022-12-08T10:23:31.856Z,100097.73
2022-12-08T10:26:07.639Z,100095.98
2022-12-08T10:28:40.046Z,100093.67
2022-12-08T10:31:17.992Z,100087.77
2022-12-08T10:33:48.322Z,100085.14
2022-12-08T10:36:16.213Z,100085.27
2022-12-08T10:38:44.295Z,100079.89
2022-12-08T10:41:12.476Z,100076.72
2022-12-08T10:43:48.105Z,100071.97
2022-12-08T10:46:20.698Z,100067.21
2022-12-08T10:48:52.733Z,100063.66
2022-12-08T10:51:42.092Z,100052.73
2022-12-08T10:54:33.372Z,100047.69
2022-12-08T10:57:01.644Z,100048.14
2022-12-08T10:59:32.868Z,100051.37
2022-12-08T11:02:02.548Z,100049.63
2022-12-08T11:04:36.661Z,100051.69
2022-12-08T11:07:06.539Z,100052.14
2022-12-08T11:09:48.686Z,100049.13
2022-12-08T11:12:18.618Z,100042.38
2022-12-08T11:14:56.238Z,100034.94
2022-12-08T11:17:27.344Z,100024.52
2022-12-08T11:20:06.498Z,100021.65
2022-12-08T11:22:38.077Z,100018.27
2022-12-08T11:25:10.890Z,100018.06
2022-12-08T11:27:43.582Z,100013.05
2022-12-08T11:30:28.020Z,100010.71
2022-12-08T11:33:01.473Z,100004.63
2022-12-08T11:35:37.526Z,100003.84
2022-12-08T11:38:22.280Z,100005.80
2022-12-08T11:40:54.424Z,100003.31
2022-12-08T11:43:25.362Z,99997.21
2022-12-08T11:45:58.137Z,99988.52
2022-12-08T11:48:41.191Z,99982.60
2022-12-08T11:51:36.716Z,99974.93
2022-12-08T11:54:06.342Z,99972.39
2022-12-08T11:56:39.000Z,99964.04
2022-12-08T11:59:13.479Z,99955.73
2022-12-08T12:01:42.854Z,99951.29
2022-12-08T12:04:22.223Z,99944.91
2022-12-08T12:06:56.157Z,99943.22
2022-12-08T12:10:03.788Z,99942.34
2022-12-08T12:12:37.871Z,99938.89
2022-12-08T12:15:27.897Z,99932.28
2022-12-08T12:17:59.183Z,99926.34
2022-12-08T12:20:53.176Z,99929.92
2022-12-08T12:23:39.117Z,99924.82
2022-12-08T12:26:10.235Z,99919.10
2022-12-08T12:29:08.604Z,99916.84
2022-12-08T12:31:42.025Z,99906.77
2022-12-08T12:34:27.238Z,99901.23
2022-12-08T12:37:15.612Z,99895.58
2022-12-08T12:39:52.914Z,99887.85
2022-12-08T12:42:39.575Z,99882.77
2022-12-08T12:45:16.174Z,99877.87
2022-12-08T12:47:55.895Z,99876.22
2022-12-08T12:50:33.508Z,99871.10
2022-12-08T12:53:10.680Z,99873.09
2022-12-08T12:56:02.472Z,99869.48
2022-12-08T12:58:30.434Z,99865.27
2022-12-08T13:01:13.966Z,99860.87
2022-12-08T13:04:07.312Z,99854.91
2022-12-08T13:06:40.838Z,99854.09
2022-12-08T13:09:22.290Z,99856.06
2022-12-08T13:11:54.153Z,99866.77
2022-12-08T13:14:29.823Z,99869.98
2022-12-08T13:17:00.152Z,99865.70
2022-12-08T13:19:32.147Z,99858.14
2022-12-08T13:22:00.748Z,99852.23
2022-12-08T13:24:32.579Z,99840.41
2022-12-08T13:27:03.794Z,99832.57
2022-12-08T13:29:33.429Z,99830.13
2022-12-08T13:32:03.087Z,99820.73
2022-12-08T13:34:42.163Z,99822.51
2022-12-08T13:37:16.147Z,99828.43
2022-12-08T13:39:51.653Z,99827.56
2022-12-08T13:42:32.632Z,99825.52
2022-12-08T13:48:44.631Z,99827.85
2022-12-08T13:53:15.845Z,99832.42
2022-12-08T13:57:36.871Z,99836.09
2022-12-08T14:00:15.968Z,99835.00
2022-12-08T14:02:48.419Z,99830.92
2022-12-08T14:05:21.872Z,99830.84
2022-12-08T14:07:55.425Z,99835.90
2022-12-08T14:10:27.595Z,99838.34
2022-12-08T14:13:01.848Z,99846.20
2022-12-08T14:15:37.609Z,99847.35
2022-12-08T14:18:21.640Z,99844.10
2022-12-08T14:21:20.303Z,99842.02
2022-12-08T14:23:49.249Z,99840.30
2022-12-08T14:26:17.960Z,99841.71
2022-12-08T14:28:46.012Z,99845.74
2022-12-08T14:31:15.022Z,99843.33
2022-12-08T14:33:43.324Z,99841.78
2022-12-08T14:36:15.822Z,99840.60
2022-12-08T14:38:45.241Z,99839.88
2022-12-08T14:41:13.226Z,99840.79
2022-12-08T14:43:43.005Z,99844.98
2022-12-08T14:46:22.335Z,99841.52
2022-12-08T14:48:50.562Z,99840.91
2022-12-08T14:51:26.520Z,99839.06
2022-12-08T14:54:09.672Z,99835.81
2022-12-08T14:56:41.886Z,99838.02
2022-12-08T14:59:17.732Z,99832.60
2022-12-08T15:01:49.452Z,99834.66
2022-12-08T15:04:23.195Z,99835.95
2022-12-08T15:07:22.811Z,99833.73
2022-12-08T15:10:09.640Z,99835.17
2022-12-08T15:12:37.807Z,99836.42
2022-12-08T15:15:08.558Z,99832.00
2022-12-08T15:17:44.530Z,99831.46
2022-12-08T15:20:40.918Z,99832.09
2022-12-08T15:23:42.629Z,99826.91
2022-12-08T15:26:21.088Z,99827.27
2022-12-08T15:28:49.245Z,99823.55
2022-12-08T15:31:18.034Z,99822.12
2022-12-08T15:33:45.936Z,99820.98
2022-12-08T15:36:14.162Z,99817.63
2022-12-08T15:38:43.260Z,99816.33
2022-12-08T15:41:14.837Z,99815.02
2022-12-08T15:43:43.622Z,99813.58
2022-12-08T15:46:12.002Z,99811.23
2022-12-08T15:48:40.219Z,99806.81
2022-12-08T15:51:08.287Z,99813.80
2022-12-08T15:53:36.134Z,99816.11
2022-12-08T15:58:56.855Z,99820.52
2022-12-08T16:01:26.619Z,99820.55
2022-12-08T16:04:47.749Z,99817.44
2022-12-08T16:09:38.947Z,99805.10
2022-12-08T16:13:26.656Z,99800.76
2022-12-08T16:15:51.235Z,99806.61
2022-12-08T16:18:23.928Z,99808.84
2022-12-08T16:21:16.870Z,99808.77
2022-12-08T16:23:43.719Z,99807.38
2022-12-08T16:29:07.499Z,99802.35
2022-12-08T16:31:35.611Z,99799.92
2022-12-08T16:34:03.704Z,99793.32
2022-12-08T16:36:31.749Z,99798.31
2022-12-08T16:38:59.654Z,99796.02
2022-12-08T16:41:45.827Z,99796.31
2022-12-08T16:44:13.916Z,99797.48
2022-12-08T16:46:42.120Z,99797.09
2022-12-08T16:49:10.075Z,99794.92
2022-12-08T16:51:38.605Z,99797.98
2022-12-08T16:54:06.492Z,99801.36
2022-12-08T16:56:34.384Z,99795.34
2022-12-08T16:59:02.732Z,99795.42
2022-12-08T17:01:31.573Z,99796.55
2022-12-08T17:04:31.007Z,99796.47
2022-12-08T17:06:47.997Z,99797.91
2022-12-08T17:09:15.887Z,99793.16
2022-12-08T17:11:44.161Z,99794.13
2022-12-08T17:14:13.540Z,99799.28
2022-12-08T17:16:42.353Z,99797.66
2022-12-08T17:19:13.408Z,99797.97
2022-12-08T17:21:43.484Z,99800.41
2022-12-08T17:24:14.619Z,99805.42
2022-12-08T17:26:43.875Z,99800.63
2022-12-08T17:29:11.969Z,99795.77
2022-12-08T17:31:39.900Z,99796.15
2022-12-08T17:34:11.100Z,99793.53
2022-12-08T17:36:39.360Z,99798.14
2022-12-08T17:39:12.147Z,99808.58
2022-12-08T17:41:42.942Z,99808.64
2022-12-08T17:44:13.509Z,99805.75
2022-12-08T17:46:45.244Z,99802.11
2022-12-08T17:49:20.452Z,99802.08
2022-12-08T17:51:51.068Z,99809.23
2022-12-08T17:54:20.079Z,99808.55
2022-12-08T17:56:48.368Z,99803.86
2022-12-08T17:59:16.618Z,99805.05
2022-12-08T18:01:44.832Z,99806.24
2022-12-08T18:04:13.207Z,99804.88
2022-12-08T18:06:41.530Z,99799.01
2022-12-08T18:09:09.738Z,99798.85
2022-12-08T18:11:37.877Z,99799.98
2022-12-08T18:14:11.063Z,99801.23
2022-12-08T18:16:41.583Z,99798.68
2022-12-08T18:19:09.773Z,99799.21
2022-12-08T18:21:38.251Z,99803.73
2022-12-08T18:24:07.225Z,99803.05
2022-12-08T18:26:35.483Z,99800.64
2022-12-08T18:29:03.785Z,99799.71
2022-12-08T18:31:31.761Z,99803.58
2022-12-08T18:33:59.791Z,99798.30
2022-12-08T18:36:27.796Z,99794.84
2022-12-08T18:38:56.019Z,99799.08
2022-12-08T18:41:26.088Z,99803.65
2022-12-08T18:43:55.742Z,99807.10
2022-12-08T18:46:25.314Z,99806.69
2022-12-08T18:48:53.375Z,99809.45
2022-12-08T18:51:24.182Z,99810.13
2022-12-08T18:53:52.840Z,99810.73
2022-12-08T18:56:26.806Z,99814.68
2022-12-08T18:59:01.307Z,99817.77
2022-12-08T19:01:33.016Z,99815.53
2022-12-08T19:06:52.242Z,99816.43
2022-12-08T19:09:20.653Z,99812.52
2022-12-08T19:11:49.121Z,99807.24
2022-12-08T19:14:19.223Z,99801.98
2022-12-08T19:16:51.336Z,99802.21
2022-12-08T19:19:19.282Z,99809.67
2022-12-08T19:21:47.184Z,99815.23
2022-12-08T19:24:15.705Z,99814.94
2022-12-08T19:26:43.721Z,99817.27
2022-12-08T19:29:12.280Z,99812.17
2022-12-08T19:31:41.681Z,99808.08
2022-12-08T19:34:11.886Z,99812.86
2022-12-08T19:36:42.950Z,99808.56
2022-12-08T19:39:38.823Z,99804.41
2022-12-08T19:42:36.072Z,99802.73
2022-12-08T19:45:12.037Z,99802.75
2022-12-08T19:47:41.306Z,99802.77
2022-12-08T19:50:31.069Z,99799.90
2022-12-08T19:52:59.623Z,99798.09
2022-12-08T19:55:28.183Z,99798.21
2022-12-08T19:57:57.109Z,99802.29
2022-12-08T20:00:25.812Z,99802.91
2022-12-08T20:02:54.073Z,99800.89
2022-12-08T20:05:22.832Z,99799.05
2022-12-08T20:07:50.976Z,99798.53
2022-12-08T20:10:23.265Z,99799.05
2022-12-08T20:12:51.812Z,99803.70
2022-12-08T20:15:19.927Z,99803.49
2022-12-08T20:17:47.899Z,99802.81
2022-12-08T20:20:16.171Z,99798.04
2022-12-08T20:22:45.261Z,99799.32
2022-12-08T20:25:13.520Z,99794.89
2022-12-08T20:27:41.753Z,99790.80
2022-12-08T20:30:16.530Z,99792.28
2022-12-08T20:32:45.896Z,99797.05
2022-12-08T20:35:15.512Z,99803.21
2022-12-08T20:37:43.644Z,99805.13
2022-12-08T20:40:12.172Z,99805.14
2022-12-08T20:42:40.074Z,99801.12
2022-12-08T20:45:09.913Z,99797.04
2022-12-08T20:47:38.282Z,99797.34
2022-12-08T20:50:07.472Z,99798.52
2022-12-08T20:52:38.126Z,99801.39
2022-12-08T20:55:07.240Z,99800.33
2022-12-08T20:57:35.779Z,99800.00
2022-12-08T21:00:05.285Z,99802.58
2022-12-08T21:02:33.825Z,99803.39
2022-12-08T21:05:02.391Z,99805.30
2022-12-08T21:07:30.618Z,99807.52
2022-12-08T21:09:59.116Z,99809.41
2022-12-08T21:12:27.209Z,99812.71
2022-12-08T21:14:55.193Z,99812.61
2022-12-08T21:17:23.758Z,99814.23
2022-12-08T21:19:51.732Z,99816.19
2022-12-08T21:22:21.096Z,99816.55
2022-12-08T21:24:49.337Z,99817.77
2022-12-08T21:27:17.343Z,99816.56
2022-12-08T21:29:45.543Z,99817.25
2022-12-08T21:32:14.458Z,99812.77
2022-12-08T21:34:44.284Z,99812.80
2022-12-08T21:37:12.415Z,99812.11
2022-12-08T21:39:40.367Z,99815.54
2022-12-08T21:42:33.926Z,99813.44
2022-12-08T21:45:02.473Z,99813.28
2022-12-08T21:47:30.730Z,99815.71
2022-12-08T21:49:58.798Z,99816.58
2022-12-08T21:52:27.260Z,99815.85
2022-12-08T21:54:55.535Z,99815.83
2022-12-08T21:57:24.554Z,99811.46
2022-12-08T21:59:52.760Z,99811.96
2022-12-08T22:02:22.676Z,99811.24
2022-12-08T22:04:52.979Z,99813.95
2022-12-08T22:07:22.058Z,99810.40
2022-12-08T22:09:49.968Z,99815.98
2022-12-08T22:12:18.221Z,99819.37
2022-12-08T22:14:46.303Z,99816.73
2022-12-08T22:17:14.390Z,99817.23
2022-12-08T22:19:43.640Z,99822.73
2022-12-08T22:22:11.727Z,99824.98
2022-12-08T22:24:39.799Z,99825.79
2022-12-08T22:27:08.183Z,99826.64
2022-12-08T22:29:36.127Z,99828.31
2022-12-08T22:32:04.234Z,99827.02
2022-12-08T22:34:32.514Z,99824.39
2022-12-08T22:37:00.826Z,99826.18
2022-12-08T22:39:28.789Z,99825.58
2022-12-08T22:41:56.637Z,99825.73
2022-12-08T22:44:24.597Z,99823.64
2022-12-08T22:46:52.583Z,99819.81
2022-12-08T22:49:20.497Z,99822.05
2022-12-08T22:51:48.440Z,99824.64
2022-12-08T22:54:16.651Z,99823.08
2022-12-08T22:56:44.982Z,99824.61
2022-12-08T22:59:12.887Z,99826.81
2022-12-08T23:01:41.202Z,99822.05
2022-12-08T23:04:17.241Z,99826.66
2022-12-08T23:06:46.126Z,99829.38
2022-12-08T23:09:14.538Z,99832.29
2022-12-08T23:11:44.213Z,99835.72
2022-12-08T23:14:12.505Z,99836.10
2022-12-08T23:16:40.589Z,99839.90
2022-12-08T23:19:08.647Z,99837.98
2022-12-08T23:21:36.962Z,99837.09
2022-12-08T23:24:05.291Z,99839.81
2022-12-08T23:26:35.512Z,99846.08
2022-12-08T23:29:04.563Z,99842.52
2022-12-08T23:31:32.880Z,99841.36
2022-12-08T23:34:02.575Z,99840.07
2022-12-08T23:36:31.652Z,99840.95
2022-12-08T23:38:59.750Z,99840.76
2022-12-08T23:41:28.098Z,99843.77
2022-12-08T23:43:56.429Z,99842.61
2022-12-08T23:46:24.914Z,99838.61
2022-12-08T23:48:52.861Z,99840.30
2022-12-08T23:51:21.426Z,99835.80
2022-12-08T23:53:49.352Z,99833.88
2022-12-08T23:56:18.497Z,99834.27
2022-12-08T23:58:46.816Z,99836.51
